createdAt,value
2023-04-10T00:00:01.896Z,8.50
2023-04-10T00:03:04.906Z,7.83
2023-04-10T00:06:08.423Z,8.27
2023-04-10T00:09:12.162Z,9.37
2023-04-10T00:12:15.632Z,8.60
2023-04-10T00:15:20.089Z,8.73
2023-04-10T00:18:22.725Z,8.60
2023-04-10T00:21:26.403Z,7.93
2023-04-10T00:24:29.093Z,8.23
2023-04-10T00:27:31.826Z,8.07
2023-04-10T00:30:35.872Z,7.40
2023-04-10T00:33:38.562Z,8.00
2023-04-10T00:36:41.257Z,7.80
2023-04-10T00:39:43.943Z,7.43
2023-04-10T00:42:46.658Z,7.60
2023-04-10T00:45:51.045Z,7.30
2023-04-10T00:48:54.429Z,7.57
2023-04-10T00:51:58.441Z,7.13
2023-04-10T00:55:02.222Z,7.63
2023-04-10T00:58:05.006Z,6.83
2023-04-10T01:01:09.517Z,7.23
2023-04-10T01:04:13.188Z,8.20
2023-04-10T01:07:28.933Z,8.47
2023-04-10T01:10:39.512Z,8.30
2023-04-10T01:13:49.021Z,8.33
2023-04-10T01:16:59.347Z,9.07
2023-04-10T01:20:08.228Z,9.87
2023-04-10T01:23:31.669Z,8.83
2023-04-10T01:26:57.940Z,7.87
2023-04-10T01:30:04.239Z,8.20
2023-04-10T01:33:13.368Z,8.73
2023-04-10T01:36:22.428Z,8.27
2023-04-10T01:39:28.153Z,8.77
2023-04-10T01:42:35.547Z,8.40
2023-04-10T01:45:41.702Z,8.80
2023-04-10T01:48:45.310Z,8.80
2023-04-10T01:51:50.406Z,8.17
2023-04-10T01:54:54.334Z,9.13
2023-04-10T01:57:57.147Z,7.57
2023-04-10T02:01:02.067Z,8.30
2023-04-10T02:04:04.960Z,8.43
2023-04-10T02:07:13.398Z,8.33
2023-04-10T02:10:22.003Z,8.90
2023-04-10T02:13:29.555Z,8.60
2023-04-10T02:16:34.789Z,8.53
2023-04-10T02:19:39.496Z,8.13
2023-04-10T02:22:44.550Z,8.70
2023-04-10T02:25:47.445Z,8.37
2023-04-10T02:28:50.220Z,8.70
2023-04-10T02:31:54.392Z,9.13
2023-04-10T02:34:57.526Z,9.67
2023-04-10T02:38:00.485Z,8.80
2023-04-10T02:41:03.173Z,8.30
2023-04-10T02:44:06.945Z,8.10
2023-04-10T02:47:11.095Z,8.57
2023-04-10T02:50:13.840Z,8.23
2023-04-10T02:53:17.317Z,8.60
2023-04-10T02:56:20.811Z,9.40
2023-04-10T02:59:23.566Z,8.50
2023-04-10T03:02:28.435Z,8.67
2023-04-10T03:05:31.443Z,8.43
2023-04-10T03:08:34.147Z,8.47
2023-04-10T03:11:36.956Z,7.83
2023-04-10T03:14:40.747Z,8.87
2023-04-10T03:17:44.894Z,8.13
2023-04-10T03:20:47.738Z,8.47
2023-04-10T03:23:50.460Z,7.90
2023-04-10T03:26:53.189Z,8.50
2023-04-10T03:29:55.965Z,9.10
2023-04-10T03:33:00.113Z,8.30
2023-04-10T03:36:03.815Z,8.93
2023-04-10T03:39:06.648Z,8.93
2023-04-10T03:42:09.324Z,9.10
2023-04-10T03:45:13.863Z,8.30
2023-04-10T03:48:18.043Z,7.60
2023-04-10T03:51:21.340Z,8.90
2023-04-10T03:54:24.079Z,8.10
2023-04-10T03:57:29.626Z,8.93
2023-04-10T04:00:32.551Z,8.47
2023-04-10T04:03:36.814Z,8.60
2023-04-10T04:06:40.174Z,8.87
2023-04-10T04:09:44.097Z,8.40
2023-04-10T04:12:46.789Z,8.00
2023-04-10T04:15:49.596Z,9.87
2023-04-10T04:18:53.662Z,8.87
2023-04-10T04:21:56.391Z,9.33
2023-04-10T04:24:59.089Z,9.00
2023-04-10T04:28:02.222Z,12.40
2023-04-10T04:31:05.049Z,10.43
2023-04-10T04:34:09.106Z,21.10
2023-04-10T04:37:11.915Z,18.50
2023-04-10T04:40:14.610Z,13.63
2023-04-10T04:43:17.314Z,10.27
2023-04-10T04:46:20.058Z,9.93
2023-04-10T04:49:24.139Z,10.57
2023-04-10T04:52:27.539Z,11.33
2023-04-10T04:55:30.321Z,12.00
2023-04-10T04:58:33.060Z,12.03
2023-04-10T05:01:36.238Z,10.33
2023-04-10T05:04:40.363Z,9.57
2023-04-10T05:07:43.080Z,16.83
2023-04-10T05:10:46.119Z,20.20
2023-04-10T05:13:48.828Z,14.20
2023-04-10T05:16:51.867Z,27.90
2023-04-10T05:19:56.016Z,12.03
2023-04-10T05:23:01.193Z,10.00
2023-04-10T05:26:03.976Z,10.30
2023-04-10T05:29:06.696Z,9.77
2023-04-10T05:32:09.428Z,10.97
2023-04-10T05:35:13.556Z,11.30
2023-04-10T05:38:16.325Z,10.37
2023-04-10T05:41:19.029Z,8.73
2023-04-10T05:44:21.732Z,9.57
2023-04-10T05:47:24.463Z,8.83
2023-04-10T05:50:30.308Z,9.70
2023-04-10T05:53:33.583Z,9.40
2023-04-10T05:56:36.272Z,8.50
2023-04-10T05:59:39.026Z,8.90
2023-04-10T06:02:42.427Z,9.60
2023-04-10T06:05:46.643Z,8.83
2023-04-10T06:08:49.872Z,9.77
2023-04-10T06:11:53.459Z,8.30
2023-04-10T06:14:56.197Z,8.67
2023-04-10T06:17:58.947Z,9.37
2023-04-10T06:21:03.201Z,8.83
2023-04-10T06:24:06.495Z,8.77
2023-04-10T06:27:09.309Z,9.30
2023-04-10T06:30:12.172Z,8.43
2023-04-10T06:33:14.889Z,9.27
2023-04-10T06:36:18.998Z,8.53
2023-04-10T06:39:21.720Z,10.03
2023-04-10T06:42:24.448Z,9.33
2023-04-10T06:45:27.189Z,7.80
2023-04-10T06:48:29.876Z,8.10
2023-04-10T06:51:34.411Z,9.10
2023-04-10T06:54:37.163Z,11.33
2023-04-10T06:57:40.008Z,9.27
2023-04-10T07:00:42.776Z,11.80
2023-04-10T07:03:45.517Z,8.03
2023-04-10T07:06:52.102Z,8.30
2023-04-10T07:09:54.772Z,7.47
2023-04-10T07:13:02.219Z,8.40
2023-04-10T07:16:05.164Z,9.73
2023-04-10T07:19:07.915Z,8.70
2023-04-10T07:22:12.572Z,9.70
2023-04-10T07:25:15.553Z,9.77
2023-04-10T07:28:18.236Z,10.33
2023-04-10T07:31:21.030Z,11.47
2023-04-10T07:34:24.075Z,10.70
2023-04-10T07:37:28.119Z,10.60
2023-04-10T07:40:30.908Z,11.03
2023-04-10T07:43:33.570Z,10.27
2023-04-10T07:46:36.421Z,8.10
2023-04-10T07:49:39.428Z,9.77
2023-04-10T07:52:43.595Z,9.53
2023-04-10T07:55:48.770Z,10.47
2023-04-10T07:58:53.115Z,10.27
2023-04-10T08:01:56.296Z,9.43
2023-04-10T08:05:00.192Z,9.90
2023-04-10T08:08:05.469Z,10.83
2023-04-10T08:11:09.497Z,9.90
2023-04-10T08:14:13.525Z,9.10
2023-04-10T08:17:21.269Z,8.63
2023-04-10T08:20:24.147Z,7.13
2023-04-10T08:23:28.232Z,9.73
2023-04-10T08:26:31.197Z,9.17
2023-04-10T08:29:33.959Z,9.50
2023-04-10T08:32:37.520Z,8.77
2023-04-10T08:35:40.344Z,9.10
2023-04-10T08:38:45.215Z,4.93
2023-04-10T08:41:47.937Z,8.40
2023-04-10T08:44:52.462Z,6.80
2023-04-10T08:47:59.296Z,7.00
2023-04-10T08:51:06.103Z,7.67
2023-04-10T08:54:20.569Z,7.13
2023-04-10T08:57:23.671Z,7.27
2023-04-10T09:00:27.264Z,8.77
2023-04-10T09:03:30.813Z,7.37
2023-04-10T09:06:33.669Z,7.73
2023-04-10T09:09:38.028Z,7.40
2023-04-10T09:12:47.862Z,6.67
2023-04-10T09:15:57.756Z,6.90
2023-04-10T09:19:03.412Z,7.37
2023-04-10T09:22:07.289Z,7.50
2023-04-10T09:25:30.620Z,6.43
2023-04-10T09:28:35.144Z,4.17
2023-04-10T09:31:39.304Z,7.03
2023-04-10T09:34:56.864Z,6.43
2023-04-10T09:37:59.838Z,6.07
2023-04-10T09:41:09.902Z,6.97
2023-04-10T09:44:13.189Z,6.97
2023-04-10T09:47:21.576Z,6.43
2023-04-10T09:50:38.708Z,6.10
2023-04-10T09:53:50.045Z,6.57
2023-04-10T09:56:55.510Z,6.43
2023-04-10T09:59:59.820Z,5.77
2023-04-10T10:03:08.409Z,5.77
2023-04-10T10:06:12.935Z,4.93
2023-04-10T10:09:16.733Z,5.37
2023-04-10T10:12:25.085Z,5.33
2023-04-10T10:15:35.952Z,4.97
2023-04-10T10:18:45.216Z,5.33
2023-04-10T10:21:48.763Z,4.57
2023-04-10T10:24:56.588Z,4.37
2023-04-10T10:28:03.968Z,4.20
2023-04-10T10:31:07.359Z,3.90
2023-04-10T10:34:11.472Z,3.90
2023-04-10T10:37:14.777Z,4.00
2023-04-10T10:40:21.575Z,3.93
2023-04-10T10:43:36.879Z,3.67
2023-04-10T10:46:44.707Z,3.73
2023-04-10T10:49:58.591Z,3.67
2023-04-10T10:53:01.906Z,3.67
2023-04-10T10:56:34.647Z,6.03
2023-04-10T10:59:57.746Z,3.90
2023-04-10T11:03:28.912Z,3.83
2023-04-10T11:06:54.491Z,3.83
2023-04-10T11:09:58.063Z,4.03
2023-04-10T11:13:17.134Z,3.47
2023-04-10T11:16:22.482Z,4.30
2023-04-10T11:19:26.276Z,4.10
2023-04-10T11:22:29.380Z,4.10
2023-04-10T11:25:49.227Z,4.00
2023-04-10T11:28:52.375Z,4.20
2023-04-10T11:31:59.592Z,3.87
2023-04-10T11:35:04.826Z,4.10
2023-04-10T11:38:16.537Z,3.57
2023-04-10T11:41:19.246Z,3.70
2023-04-10T11:44:30.021Z,4.07
2023-04-10T11:47:34.235Z,3.20
2023-04-10T11:50:37.114Z,3.50
2023-04-10T11:53:40.047Z,3.80
2023-04-10T11:56:44.161Z,3.57
2023-04-10T11:59:51.443Z,3.67
2023-04-10T12:02:55.866Z,3.60
2023-04-10T12:05:58.973Z,3.57
2023-04-10T12:09:01.745Z,3.60
2023-04-10T12:12:06.066Z,3.30
2023-04-10T12:15:27.507Z,3.33
2023-04-10T12:18:32.576Z,3.10
2023-04-10T12:21:37.029Z,2.73
2023-04-10T12:24:44.486Z,3.30
2023-04-10T12:27:51.655Z,3.23
2023-04-10T12:30:55.195Z,3.00
2023-04-10T12:34:00.116Z,2.70
2023-04-10T12:37:04.589Z,2.50
2023-04-10T12:40:08.421Z,1.80
2023-04-10T12:43:11.302Z,2.30
2023-04-10T12:46:24.985Z,2.20
2023-04-10T12:49:29.077Z,2.47
2023-04-10T12:52:31.965Z,2.23
2023-04-10T12:55:34.896Z,2.10
2023-04-10T12:58:38.308Z,2.03
2023-04-10T13:01:41.804Z,2.20
2023-04-10T13:04:46.740Z,2.37
2023-04-10T13:07:52.899Z,2.10
2023-04-10T13:10:58.122Z,2.27
2023-04-10T13:14:01.064Z,2.10
2023-04-10T13:17:03.778Z,2.20
2023-04-10T13:20:10.257Z,2.10
2023-04-10T13:23:13.148Z,2.03
2023-04-10T13:26:15.853Z,2.10
2023-04-10T13:29:18.539Z,2.30
2023-04-10T13:32:21.191Z,2.20
2023-04-10T13:35:25.323Z,2.00
2023-04-10T13:38:28.024Z,2.30
2023-04-10T13:41:31.312Z,2.50
2023-04-10T13:44:33.967Z,2.43
2023-04-10T13:47:36.713Z,2.23
2023-04-10T13:50:40.880Z,2.50
2023-04-10T13:53:43.708Z,2.20
2023-04-10T13:56:46.915Z,2.23
2023-04-10T13:59:49.708Z,2.30
2023-04-10T14:02:52.839Z,2.00
2023-04-10T14:05:57.100Z,2.07
2023-04-10T14:08:59.817Z,2.20
2023-04-10T14:12:03.509Z,2.17
2023-04-10T14:15:07.337Z,2.40
2023-04-10T14:18:14.810Z,2.00
2023-04-10T14:21:20.588Z,2.10
2023-04-10T14:24:23.549Z,2.10
2023-04-10T14:27:26.365Z,2.40
2023-04-10T14:30:31.055Z,2.00
2023-04-10T14:33:33.687Z,2.00
2023-04-10T14:36:37.908Z,1.83
2023-04-10T14:39:40.715Z,2.00
2023-04-10T14:42:43.404Z,1.70
2023-04-10T14:45:46.090Z,1.83
2023-04-10T14:48:48.975Z,1.90
2023-04-10T14:51:53.083Z,1.80
2023-04-10T14:54:55.795Z,1.90
2023-04-10T14:57:58.938Z,2.00
2023-04-10T15:01:02.005Z,1.87
2023-04-10T15:04:04.878Z,2.50
2023-04-10T15:07:08.958Z,2.13
2023-04-10T15:10:12.077Z,1.93
2023-04-10T15:13:14.954Z,2.07
2023-04-10T15:16:17.798Z,2.10
2023-04-10T15:19:20.558Z,1.60
2023-04-10T15:22:24.562Z,1.70
2023-04-10T15:25:27.775Z,1.50
2023-04-10T15:28:30.507Z,1.57
2023-04-10T15:31:33.259Z,1.50
2023-04-10T15:34:36.164Z,1.40
2023-04-10T15:37:40.226Z,1.50
2023-04-10T15:40:43.034Z,1.20
2023-04-10T15:43:46.074Z,1.50
2023-04-10T15:46:48.949Z,1.30
2023-04-10T15:49:51.747Z,1.30
2023-04-10T15:52:55.916Z,1.40
2023-04-10T15:55:58.796Z,1.30
2023-04-10T15:59:01.916Z,1.23
2023-04-10T16:02:04.907Z,1.20
2023-04-10T16:05:09.305Z,1.10
2023-04-10T16:08:13.575Z,1.17
2023-04-10T16:11:16.816Z,1.40
2023-04-10T16:14:19.888Z,1.60
2023-04-10T16:17:22.741Z,1.57
2023-04-10T16:20:25.748Z,1.60
2023-04-10T16:23:29.838Z,1.53
2023-04-10T16:26:32.518Z,1.47
2023-04-10T16:29:35.266Z,1.63
2023-04-10T16:32:38.122Z,1.70
2023-04-10T16:35:40.865Z,1.40
2023-04-10T16:38:45.270Z,1.40
2023-04-10T16:41:48.003Z,1.13
2023-04-10T16:44:50.727Z,1.50
2023-04-10T16:47:53.634Z,1.57
2023-04-10T16:50:58.856Z,1.53
2023-04-10T16:54:03.676Z,1.60
2023-04-10T16:57:06.842Z,1.60
2023-04-10T17:00:10.803Z,2.10
2023-04-10T17:03:13.824Z,2.00
2023-04-10T17:06:16.668Z,2.80
2023-04-10T17:09:21.298Z,2.30
2023-04-10T17:12:24.105Z,2.40
2023-04-10T17:15:27.040Z,2.70
2023-04-10T17:18:29.796Z,2.40
2023-04-10T17:21:32.597Z,2.23
2023-04-10T17:24:36.880Z,1.40
2023-04-10T17:27:40.748Z,1.80
2023-04-10T17:30:43.943Z,2.30
2023-04-10T17:33:46.668Z,2.33
2023-04-10T17:36:50.919Z,3.47
2023-04-10T17:39:54.926Z,2.80
2023-04-10T17:42:57.678Z,2.80
2023-04-10T17:46:00.465Z,2.00
2023-04-10T17:49:03.508Z,1.97
2023-04-10T17:52:06.494Z,1.67
2023-04-10T17:55:11.383Z,1.77
2023-04-10T17:58:14.191Z,2.03
2023-04-10T18:01:26.108Z,1.97
2023-04-10T18:04:28.934Z,1.93
2023-04-10T18:07:31.631Z,2.00
2023-04-10T18:10:35.986Z,1.90
2023-04-10T18:13:38.956Z,2.10
2023-04-10T18:16:41.751Z,1.70
2023-04-10T18:19:44.549Z,2.10
2023-04-10T18:22:48.133Z,2.07
2023-04-10T18:25:56.319Z,2.00
2023-04-10T18:28:59.022Z,1.40
2023-04-10T18:32:02.034Z,1.77
2023-04-10T18:35:05.161Z,1.60
2023-04-10T18:38:08.029Z,1.70
2023-04-10T18:41:12.129Z,2.00
2023-04-10T18:44:14.825Z,1.70
2023-04-10T18:47:17.605Z,1.50
2023-04-10T18:50:20.304Z,1.70
2023-04-10T18:53:23.254Z,1.80
2023-04-10T18:56:27.309Z,1.90
2023-04-10T18:59:30.043Z,1.80
2023-04-10T19:02:32.942Z,1.80
2023-04-10T19:05:35.970Z,1.90
2023-04-10T19:08:38.678Z,2.20
2023-04-10T19:11:42.778Z,2.50
2023-04-10T19:14:45.628Z,2.03
2023-04-10T19:17:48.836Z,2.47
2023-04-10T19:20:53.178Z,2.00
2023-04-10T19:23:56.501Z,2.10
2023-04-10T19:27:02.497Z,2.23
2023-04-10T19:30:05.950Z,2.17
2023-04-10T19:33:08.654Z,2.50
2023-04-10T19:36:11.385Z,2.77
2023-04-10T19:39:14.163Z,2.83
2023-04-10T19:42:18.194Z,2.90
2023-04-10T19:45:22.163Z,2.40
2023-04-10T19:48:24.841Z,2.43
2023-04-10T19:51:27.966Z,2.73
2023-04-10T19:54:30.884Z,2.47
2023-04-10T19:57:34.989Z,2.47
2023-04-10T20:00:37.687Z,2.37
2023-04-10T20:03:41.089Z,2.30
2023-04-10T20:06:44.179Z,2.37
2023-04-10T20:09:46.898Z,2.80
2023-04-10T20:12:50.909Z,2.70
2023-04-10T20:15:53.826Z,2.20
2023-04-10T20:18:56.788Z,2.30
2023-04-10T20:22:02.052Z,2.17
2023-04-10T20:25:05.613Z,2.50
2023-04-10T20:28:09.823Z,2.20
2023-04-10T20:31:13.181Z,2.50
2023-04-10T20:34:16.275Z,2.27
2023-04-10T20:37:21.832Z,2.23
2023-04-10T20:40:25.019Z,2.23
2023-04-10T20:43:29.224Z,2.30
2023-04-10T20:46:32.034Z,2.87
2023-04-10T20:49:37.311Z,2.10
2023-04-10T20:52:40.974Z,2.03
2023-04-10T20:55:43.659Z,2.10
2023-04-10T20:58:47.802Z,2.23
2023-04-10T21:01:50.564Z,2.07
2023-04-10T21:04:53.305Z,2.20
2023-04-10T21:07:56.030Z,2.10
2023-04-10T21:10:59.486Z,2.47
2023-04-10T21:14:05.987Z,2.63
2023-04-10T21:17:08.694Z,2.60
2023-04-10T21:20:12.707Z,2.40
2023-04-10T21:23:15.390Z,5.23
2023-04-10T21:26:18.149Z,15.87
2023-04-10T21:29:22.215Z,5.47
2023-04-10T21:32:25.084Z,5.30
2023-04-10T21:35:28.227Z,3.87
2023-04-10T21:38:31.005Z,9.03
2023-04-10T21:41:33.745Z,7.33
2023-04-10T21:44:37.870Z,3.27
2023-04-10T21:47:40.631Z,3.50
2023-04-10T21:50:43.452Z,2.83
2023-04-10T21:53:46.206Z,2.57
2023-04-10T21:56:48.899Z,1.70
2023-04-10T21:59:52.961Z,2.30
2023-04-10T22:02:55.765Z,2.00
2023-04-10T22:05:58.658Z,1.97
2023-04-10T22:09:01.856Z,1.93
2023-04-10T22:12:05.117Z,2.13
2023-04-10T22:15:10.738Z,1.80
2023-04-10T22:18:13.643Z,1.80
2023-04-10T22:21:16.400Z,2.10
2023-04-10T22:24:19.271Z,1.83
2023-04-10T22:27:21.953Z,1.70
2023-04-10T22:30:27.728Z,1.87
2023-04-10T22:33:33.222Z,1.70
2023-04-10T22:36:35.958Z,1.60
2023-04-10T22:39:38.751Z,1.87
2023-04-10T22:42:42.657Z,1.50
2023-04-10T22:45:46.716Z,1.50
2023-04-10T22:48:49.612Z,1.70
2023-04-10T22:51:52.338Z,1.80
2023-04-10T22:55:00.859Z,1.77
2023-04-10T22:58:03.564Z,1.77
2023-04-10T23:01:08.824Z,1.53
2023-04-10T23:04:11.572Z,1.70
2023-04-10T23:07:14.573Z,1.80
2023-04-10T23:10:17.493Z,2.00
2023-04-10T23:13:20.307Z,1.50
2023-04-10T23:16:24.761Z,1.60
2023-04-10T23:19:27.869Z,1.77
2023-04-10T23:22:36.733Z,1.40
2023-04-10T23:25:39.454Z,1.67
2023-04-10T23:28:42.438Z,1.50
2023-04-10T23:31:46.530Z,1.60
2023-04-10T23:34:49.299Z,1.37
2023-04-10T23:37:52.144Z,1.73
2023-04-10T23:40:55.204Z,1.57
2023-04-10T23:43:57.957Z,1.67
2023-04-10T23:47:02.107Z,1.77
2023-04-10T23:50:05.310Z,1.67
2023-04-10T23:53:08.679Z,1.90
2023-04-10T23:56:13.911Z,1.73
2023-04-10T23:59:17.123Z,2.00
